createdAt,value
2022-12-12T00:01:54.078Z,13.73
2022-12-12T00:04:22.688Z,13.25
2022-12-12T00:06:51.979Z,10.73
2022-12-12T00:09:20.009Z,8.60
2022-12-12T00:11:48.616Z,10.25
2022-12-12T00:14:16.806Z,8.98
2022-12-12T00:16:45.506Z,11.68
2022-12-12T00:19:14.346Z,9.93
2022-12-12T00:21:42.865Z,10.98
2022-12-12T00:24:11.492Z,9.50
2022-12-12T00:26:41.233Z,8.93
2022-12-12T00:29:09.419Z,8.40
2022-12-12T00:31:38.381Z,7.85
2022-12-12T00:34:06.632Z,8.63
2022-12-12T00:36:35.243Z,10.23
2022-12-12T00:39:04.115Z,8.88
2022-12-12T00:41:32.604Z,12.27
2022-12-12T00:44:00.603Z,9.82
2022-12-12T00:46:30.970Z,12.80
2022-12-12T00:48:59.573Z,13.55
2022-12-12T00:51:30.132Z,11.98
2022-12-12T00:53:59.830Z,12.93
2022-12-12T00:56:29.892Z,8.25
2022-12-12T00:58:59.443Z,10.40
2022-12-12T01:01:29.756Z,9.53
2022-12-12T01:04:00.358Z,11.40
2022-12-12T01:06:29.374Z,15.30
2022-12-12T01:08:57.892Z,10.23
2022-12-12T01:11:26.755Z,32.33
2022-12-12T01:13:56.086Z,30.75
2022-12-12T01:16:25.228Z,15.32
2022-12-12T01:18:53.650Z,11.13
2022-12-12T01:21:23.770Z,9.90
2022-12-12T01:23:52.500Z,21.15
2022-12-12T01:26:24.230Z,10.63
2022-12-12T01:28:52.997Z,11.70
2022-12-12T01:31:22.035Z,10.98
2022-12-12T01:33:50.567Z,12.00
2022-12-12T01:36:39.338Z,11.43
2022-12-12T01:39:08.220Z,14.48
2022-12-12T01:41:38.450Z,10.13
2022-12-12T01:44:48.116Z,10.25
2022-12-12T01:47:20.585Z,9.32
2022-12-12T01:50:09.949Z,10.05
2022-12-12T01:52:43.876Z,10.37
2022-12-12T01:55:42.961Z,12.50
2022-12-12T01:58:11.610Z,9.88
2022-12-12T02:00:40.688Z,9.10
2022-12-12T02:03:09.679Z,15.52
2022-12-12T02:05:46.786Z,24.10
2022-12-12T02:08:16.697Z,11.35
2022-12-12T02:10:45.978Z,20.05
2022-12-12T02:13:17.426Z,12.33
2022-12-12T02:16:12.953Z,14.63
2022-12-12T02:19:16.585Z,9.63
2022-12-12T02:22:19.212Z,11.25
2022-12-12T02:25:30.760Z,15.43
2022-12-12T02:28:10.831Z,10.57
2022-12-12T02:31:21.144Z,12.25
2022-12-12T02:34:16.436Z,11.82
2022-12-12T02:36:57.037Z,10.27
2022-12-12T02:39:57.878Z,7.60
2022-12-12T02:42:41.065Z,8.77
2022-12-12T02:46:02.013Z,10.48
2022-12-12T02:48:49.378Z,9.07
2022-12-12T02:51:20.261Z,10.73
2022-12-12T02:53:48.819Z,9.23
2022-12-12T02:56:50.486Z,9.32
2022-12-12T02:59:34.729Z,8.40
2022-12-12T03:02:24.316Z,8.65
2022-12-12T03:05:30.305Z,7.88
2022-12-12T03:08:07.873Z,8.55
2022-12-12T03:10:58.203Z,6.72
2022-12-12T03:13:34.233Z,7.40
2022-12-12T03:16:06.990Z,8.23
2022-12-12T03:19:02.936Z,8.27
2022-12-12T03:21:34.569Z,7.75
2022-12-12T03:24:28.864Z,8.13
2022-12-12T03:27:16.526Z,10.10
2022-12-12T03:30:00.788Z,12.30
2022-12-12T03:32:35.589Z,10.60
2022-12-12T03:35:29.144Z,8.00
2022-12-12T03:38:05.392Z,8.57
2022-12-12T03:40:41.722Z,7.80
2022-12-12T03:43:15.666Z,8.02
2022-12-12T03:45:53.808Z,8.75
2022-12-12T03:48:31.290Z,8.55
2022-12-12T03:51:07.364Z,8.85
2022-12-12T03:53:41.757Z,8.40
2022-12-12T03:56:29.887Z,8.45
2022-12-12T03:59:01.656Z,7.75
2022-12-12T04:01:39.341Z,7.93
2022-12-12T04:04:18.456Z,8.15
2022-12-12T04:06:53.322Z,7.40
2022-12-12T04:09:40.596Z,7.72
2022-12-12T04:12:36.605Z,8.10
2022-12-12T04:15:30.519Z,6.53
2022-12-12T04:18:24.818Z,7.53
2022-12-12T04:21:45.902Z,8.10
2022-12-12T04:24:26.143Z,7.40
2022-12-12T04:27:11.796Z,7.53
2022-12-12T04:29:54.511Z,7.43
2022-12-12T04:32:58.145Z,7.80
2022-12-12T04:35:39.137Z,6.80
2022-12-12T04:38:13.581Z,7.80
2022-12-12T04:40:45.946Z,7.88
2022-12-12T04:43:49.341Z,7.38
2022-12-12T04:46:21.810Z,7.47
2022-12-12T04:48:57.331Z,7.57
2022-12-12T04:51:38.524Z,7.00
2022-12-12T04:54:13.555Z,8.13
2022-12-12T04:56:44.799Z,7.20
2022-12-12T04:59:13.666Z,8.32
2022-12-12T05:02:15.557Z,7.85
2022-12-12T05:05:02.747Z,8.40
2022-12-12T05:07:41.996Z,7.63
2022-12-12T05:10:29.261Z,11.88
2022-12-12T05:13:01.675Z,11.40
2022-12-12T05:15:30.467Z,11.25
2022-12-12T05:18:05.995Z,10.15
2022-12-12T05:20:34.618Z,9.95
2022-12-12T05:23:04.570Z,9.80
2022-12-12T05:25:37.943Z,9.20
2022-12-12T05:28:06.641Z,10.30
2022-12-12T05:30:35.701Z,11.23
2022-12-12T05:33:04.220Z,13.07
2022-12-12T05:35:34.240Z,9.60
2022-12-12T05:38:02.874Z,10.07
2022-12-12T05:40:31.314Z,11.18
2022-12-12T05:42:59.695Z,10.40
2022-12-12T05:45:28.227Z,12.23
2022-12-12T05:48:11.822Z,9.40
2022-12-12T05:50:40.472Z,9.40
2022-12-12T05:53:08.886Z,9.77
2022-12-12T05:55:39.191Z,11.67
2022-12-12T05:58:07.712Z,12.05
2022-12-12T06:00:37.613Z,12.93
2022-12-12T06:03:05.655Z,12.40
2022-12-12T06:05:34.066Z,11.52
2022-12-12T06:08:02.299Z,12.75
2022-12-12T06:10:34.476Z,13.00
2022-12-12T06:13:05.809Z,13.00
2022-12-12T06:15:34.414Z,12.95
2022-12-12T06:18:04.892Z,11.35
2022-12-12T06:20:33.671Z,10.95
2022-12-12T06:23:03.930Z,10.77
2022-12-12T06:25:32.763Z,11.43
2022-12-12T06:28:00.952Z,12.23
2022-12-12T06:30:29.506Z,10.80
2022-12-12T06:32:58.809Z,10.30
2022-12-12T06:35:27.253Z,10.10
2022-12-12T06:37:55.429Z,10.23
2022-12-12T06:40:24.012Z,8.70
2022-12-12T06:42:52.284Z,9.93
2022-12-12T06:45:20.910Z,8.68
2022-12-12T06:47:51.003Z,9.00
2022-12-12T06:52:52.052Z,13.27
2022-12-12T06:55:20.538Z,13.13
2022-12-12T06:57:48.789Z,13.77
2022-12-12T07:00:17.851Z,12.57
2022-12-12T07:02:47.865Z,14.13
2022-12-12T07:05:18.574Z,13.90
2022-12-12T07:07:46.823Z,14.05
2022-12-12T07:10:19.773Z,14.50
2022-12-12T07:12:53.283Z,15.10
2022-12-12T07:15:24.612Z,18.42
2022-12-12T07:17:55.712Z,19.38
2022-12-12T07:20:24.416Z,20.13
2022-12-12T07:22:56.079Z,16.83
2022-12-12T07:25:25.050Z,16.75
2022-12-12T07:27:54.405Z,16.63
2022-12-12T07:30:22.953Z,15.63
2022-12-12T07:32:52.598Z,17.15
2022-12-12T07:35:21.035Z,18.92
2022-12-12T07:37:49.656Z,20.63
2022-12-12T07:40:18.584Z,18.63
2022-12-12T07:42:46.735Z,16.80
2022-12-12T07:45:49.531Z,16.33
2022-12-12T07:48:18.012Z,18.02
2022-12-12T07:50:50.542Z,21.95
2022-12-12T07:53:21.381Z,24.80
2022-12-12T07:55:53.119Z,27.58
2022-12-12T07:58:21.419Z,23.58
2022-12-12T08:00:50.098Z,23.02
2022-12-12T08:03:18.509Z,25.77
2022-12-12T08:05:47.047Z,25.20
2022-12-12T08:08:15.033Z,20.67
2022-12-12T08:10:43.916Z,26.65
2022-12-12T08:13:12.328Z,23.65
2022-12-12T08:15:44.867Z,18.88
2022-12-12T08:18:12.838Z,17.30
2022-12-12T08:20:41.965Z,21.08
2022-12-12T08:23:10.830Z,25.15
2022-12-12T08:25:41.858Z,20.02
2022-12-12T08:28:10.467Z,23.88
2022-12-12T08:30:39.114Z,20.70
2022-12-12T08:33:08.333Z,21.63
2022-12-12T08:35:37.071Z,20.52
2022-12-12T08:38:05.420Z,18.13
2022-12-12T08:41:02.027Z,19.75
2022-12-12T08:43:30.248Z,16.45
2022-12-12T08:46:02.132Z,15.93
2022-12-12T08:48:31.404Z,16.45
2022-12-12T08:51:01.792Z,15.02
2022-12-12T08:53:36.411Z,10.05
2022-12-12T08:56:05.499Z,13.18
2022-12-12T08:58:34.217Z,12.57
2022-12-12T09:01:04.150Z,12.38
2022-12-12T09:03:34.275Z,13.05
2022-12-12T09:06:02.874Z,13.13
2022-12-12T09:08:33.092Z,11.23
2022-12-12T09:13:31.774Z,11.40
2022-12-12T09:16:01.035Z,11.57
2022-12-12T09:18:29.605Z,11.52
2022-12-12T09:21:05.283Z,14.90
2022-12-12T09:23:34.049Z,17.00
2022-12-12T09:26:08.299Z,14.52
2022-12-12T09:28:37.270Z,16.13
2022-12-12T09:31:07.642Z,16.80
2022-12-12T09:33:36.715Z,14.82
2022-12-12T09:36:08.093Z,18.90
2022-12-12T09:38:37.263Z,17.50
2022-12-12T09:41:10.258Z,16.77
2022-12-12T09:43:51.991Z,17.35
2022-12-12T09:46:25.836Z,18.17
2022-12-12T09:49:17.160Z,16.88
2022-12-12T09:51:49.837Z,14.93
2022-12-12T09:54:26.896Z,15.45
2022-12-12T09:56:58.510Z,14.93
2022-12-12T09:59:39.708Z,13.02
2022-12-12T10:02:38.005Z,16.10
2022-12-12T10:05:37.175Z,17.80
2022-12-12T10:08:28.173Z,14.38
2022-12-12T10:11:07.552Z,13.82
2022-12-12T10:13:37.852Z,15.15
2022-12-12T10:16:10.124Z,14.70
2022-12-12T10:18:49.413Z,14.40
2022-12-12T10:21:30.780Z,14.60
2022-12-12T10:24:30.415Z,14.93
2022-12-12T10:27:13.388Z,13.07
2022-12-12T10:29:48.984Z,12.57
2022-12-12T10:32:45.714Z,13.45
2022-12-12T10:35:39.107Z,12.95
2022-12-12T10:38:50.981Z,13.13
2022-12-12T10:41:40.685Z,14.27
2022-12-12T10:44:25.926Z,19.58
2022-12-12T10:47:06.843Z,18.65
2022-12-12T10:49:35.866Z,18.73
2022-12-12T10:52:20.785Z,18.83
2022-12-12T10:55:00.700Z,18.15
2022-12-12T10:57:36.692Z,15.85
2022-12-12T11:00:27.344Z,15.73
2022-12-12T11:03:00.415Z,14.07
2022-12-12T11:05:34.793Z,16.45
2022-12-12T11:08:06.341Z,15.75
2022-12-12T11:10:36.733Z,18.55
2022-12-12T11:13:16.674Z,24.15
2022-12-12T11:16:14.646Z,34.60
2022-12-12T11:18:57.829Z,29.23
2022-12-12T11:21:28.722Z,34.65
2022-12-12T11:23:58.611Z,35.63
2022-12-12T11:26:29.371Z,149.32
2022-12-12T11:29:03.473Z,120.65
2022-12-12T11:31:34.928Z,155.40
2022-12-12T11:34:06.631Z,166.88
2022-12-12T11:36:38.023Z,138.18
2022-12-12T11:39:28.762Z,96.38
2022-12-12T11:42:06.240Z,109.38
2022-12-12T11:44:37.717Z,197.65
2022-12-12T11:47:26.279Z,243.63
2022-12-12T11:49:59.277Z,145.82
2022-12-12T11:52:32.042Z,80.85
2022-12-12T11:55:01.733Z,100.18
2022-12-12T11:58:03.676Z,105.45
2022-12-12T12:00:48.631Z,48.17
2022-12-12T12:03:27.548Z,28.25
2022-12-12T12:06:17.923Z,22.98
2022-12-12T12:08:48.996Z,20.03
2022-12-12T12:11:47.080Z,27.90
2022-12-12T12:14:36.346Z,23.83
2022-12-12T12:17:04.770Z,23.77
2022-12-12T12:19:51.261Z,29.92
2022-12-12T12:22:31.237Z,23.13
2022-12-12T12:25:26.198Z,22.70
2022-12-12T12:28:07.703Z,28.35
2022-12-12T12:33:13.939Z,51.00
2022-12-12T12:36:34.311Z,47.55
2022-12-12T12:39:29.150Z,83.88
2022-12-12T12:42:24.589Z,84.70
2022-12-12T12:44:55.362Z,220.05
2022-12-12T12:48:07.249Z,126.93
2022-12-12T12:50:48.816Z,121.05
2022-12-12T12:53:25.691Z,84.75
2022-12-12T12:56:00.326Z,49.28
2022-12-12T12:58:43.311Z,35.13
2022-12-12T13:01:29.427Z,25.40
2022-12-12T13:04:02.916Z,27.08
2022-12-12T13:06:34.282Z,23.25
2022-12-12T13:09:24.280Z,26.10
2022-12-12T13:12:12.461Z,24.42
2022-12-12T13:15:14.756Z,19.80
2022-12-12T13:18:04.858Z,19.38
2022-12-12T13:20:38.460Z,25.45
2022-12-12T13:23:57.144Z,25.85
2022-12-12T13:26:25.668Z,22.45
2022-12-12T13:29:16.210Z,24.67
2022-12-12T13:32:20.924Z,112.18
2022-12-12T13:34:57.348Z,120.20
2022-12-12T13:37:26.653Z,109.65
2022-12-12T13:40:06.941Z,142.68
2022-12-12T13:43:07.203Z,206.00
2022-12-12T13:45:40.078Z,237.05
2022-12-12T13:48:45.988Z,139.15
2022-12-12T13:51:37.555Z,141.85
2022-12-12T13:54:13.082Z,191.65
2022-12-12T13:56:52.923Z,151.57
2022-12-12T13:59:24.020Z,148.32
2022-12-12T14:02:03.247Z,156.43
2022-12-12T14:04:36.902Z,122.95
2022-12-12T14:07:19.591Z,90.95
2022-12-12T14:09:52.152Z,85.20
2022-12-12T14:12:31.821Z,46.17
2022-12-12T14:15:06.474Z,36.97
2022-12-12T14:17:42.606Z,30.65
2022-12-12T14:20:26.380Z,33.65
2022-12-12T14:23:06.856Z,28.95
2022-12-12T14:25:38.284Z,23.52
2022-12-12T14:28:20.571Z,28.38
2022-12-12T14:30:56.626Z,24.75
2022-12-12T14:33:35.691Z,27.92
2022-12-12T14:36:27.965Z,26.48
2022-12-12T14:39:43.545Z,28.40
2022-12-12T14:42:26.475Z,32.40
2022-12-12T14:44:54.843Z,36.03
2022-12-12T14:47:22.814Z,35.10
2022-12-12T14:50:09.742Z,40.10
2022-12-12T14:52:37.875Z,30.40
2022-12-12T14:55:06.747Z,34.03
2022-12-12T14:57:35.527Z,40.13
2022-12-12T15:00:13.481Z,52.20
2022-12-12T15:02:41.569Z,36.40
2022-12-12T15:05:09.897Z,27.25
2022-12-12T15:07:59.901Z,26.63
2022-12-12T15:10:30.879Z,123.63
2022-12-12T15:12:58.997Z,92.65
2022-12-12T15:15:32.152Z,386.40
2022-12-12T15:18:01.650Z,467.55
2022-12-12T15:20:32.525Z,249.50
2022-12-12T15:23:02.195Z,119.38
2022-12-12T15:25:38.644Z,100.03
2022-12-12T15:28:06.977Z,206.25
2022-12-12T15:30:41.422Z,440.67
2022-12-12T15:33:17.729Z,220.95
2022-12-12T15:36:01.951Z,228.82
2022-12-12T15:38:32.477Z,149.80
2022-12-12T15:41:09.595Z,95.68
2022-12-12T15:43:43.425Z,88.57
2022-12-12T15:46:17.739Z,70.75
2022-12-12T15:48:49.357Z,58.88
2022-12-12T15:51:24.597Z,47.67
2022-12-12T15:53:55.664Z,41.88
2022-12-12T15:59:16.450Z,50.63
2022-12-12T16:01:44.777Z,38.20
2022-12-12T16:04:12.670Z,47.25
2022-12-12T16:06:42.966Z,106.60
2022-12-12T16:09:11.019Z,117.60
2022-12-12T16:11:51.766Z,282.90
2022-12-12T16:14:37.301Z,124.20
2022-12-12T16:17:19.631Z,126.20
2022-12-12T16:19:59.658Z,123.50
2022-12-12T16:22:40.059Z,131.80
2022-12-12T16:25:26.330Z,92.90
2022-12-12T16:28:10.295Z,95.70
2022-12-12T16:30:42.961Z,56.33
2022-12-12T16:33:36.522Z,74.70
2022-12-12T16:36:13.918Z,63.45
2022-12-12T16:38:43.920Z,60.50
2022-12-12T16:41:17.721Z,49.60
2022-12-12T16:43:46.512Z,77.38
2022-12-12T16:46:23.366Z,445.92
2022-12-12T16:48:53.067Z,180.20
2022-12-12T16:51:32.670Z,315.13
2022-12-12T16:54:01.185Z,139.03
2022-12-12T16:56:29.166Z,105.10
2022-12-12T16:59:03.455Z,140.02
2022-12-12T17:01:35.847Z,124.88
2022-12-12T17:04:15.979Z,97.20
2022-12-12T17:06:43.898Z,92.68
2022-12-12T17:09:12.177Z,62.67
2022-12-12T17:11:43.151Z,54.40
2022-12-12T17:14:23.292Z,53.08
2022-12-12T17:16:51.696Z,92.20
2022-12-12T17:19:20.755Z,78.05
2022-12-12T17:21:48.868Z,105.60
2022-12-12T17:24:17.308Z,53.22
2022-12-12T17:26:45.366Z,56.70
2022-12-12T17:29:13.666Z,44.95
2022-12-12T17:31:41.737Z,70.85
2022-12-12T17:34:11.463Z,184.65
2022-12-12T17:36:39.491Z,127.15
2022-12-12T17:39:07.968Z,78.03
2022-12-12T17:41:36.824Z,96.75
2022-12-12T17:44:05.892Z,74.57
2022-12-12T17:46:34.096Z,60.35
2022-12-12T17:49:03.556Z,56.10
2022-12-12T17:51:32.328Z,53.75
2022-12-12T17:54:01.407Z,59.65
2022-12-12T17:56:30.930Z,42.50
2022-12-12T17:58:59.259Z,44.13
2022-12-12T18:01:29.387Z,49.17
2022-12-12T18:04:04.879Z,37.65
2022-12-12T18:06:42.156Z,39.22
2022-12-12T18:09:10.729Z,52.70
2022-12-12T18:11:39.350Z,67.32
2022-12-12T18:14:09.047Z,57.03
2022-12-12T18:16:37.109Z,37.15
2022-12-12T18:19:05.720Z,24.23
2022-12-12T18:24:25.622Z,31.15
2022-12-12T18:26:55.648Z,31.52
2022-12-12T18:29:26.081Z,19.55
2022-12-12T18:31:57.963Z,28.80
2022-12-12T18:34:27.214Z,33.17
2022-12-12T18:36:55.304Z,18.48
2022-12-12T18:39:25.298Z,18.00
2022-12-12T18:41:53.521Z,16.08
2022-12-12T18:44:22.544Z,18.02
2022-12-12T18:46:52.239Z,22.73
2022-12-12T18:49:21.022Z,26.30
2022-12-12T18:51:49.251Z,29.92
2022-12-12T18:54:18.949Z,155.98
2022-12-12T18:56:48.037Z,208.60
2022-12-12T18:59:17.730Z,90.38
2022-12-12T19:01:46.388Z,109.68
2022-12-12T19:04:22.483Z,66.78
2022-12-12T19:06:52.794Z,31.67
2022-12-12T19:09:23.485Z,47.70
2022-12-12T19:11:56.870Z,29.55
2022-12-12T19:14:45.780Z,22.95
2022-12-12T19:17:25.337Z,25.98
2022-12-12T19:19:54.751Z,47.08
2022-12-12T19:25:17.583Z,68.43
2022-12-12T19:27:46.230Z,55.40
2022-12-12T19:30:16.478Z,50.72
2022-12-12T19:32:49.181Z,67.82
2022-12-12T19:35:18.290Z,46.85
2022-12-12T19:37:46.477Z,41.03
2022-12-12T19:40:16.049Z,23.27
2022-12-12T19:42:44.586Z,26.85
2022-12-12T19:45:13.201Z,22.20
2022-12-12T19:47:41.790Z,32.33
2022-12-12T19:50:10.976Z,26.45
2022-12-12T19:52:39.454Z,27.33
2022-12-12T19:55:08.257Z,43.05
2022-12-12T19:57:36.205Z,23.35
2022-12-12T20:00:05.214Z,13.40
2022-12-12T20:02:37.993Z,12.18
2022-12-12T20:05:15.858Z,11.75
2022-12-12T20:07:44.028Z,19.00
2022-12-12T20:10:13.701Z,13.90
2022-12-12T20:12:51.811Z,115.18
2022-12-12T20:15:25.986Z,75.28
2022-12-12T20:17:53.865Z,69.68
2022-12-12T20:20:22.137Z,92.15
2022-12-12T20:22:50.571Z,60.53
2022-12-12T20:25:18.913Z,82.97
2022-12-12T20:27:47.181Z,81.07
2022-12-12T20:30:16.534Z,119.22
2022-12-12T20:32:46.287Z,284.40
2022-12-12T20:35:15.361Z,128.18
2022-12-12T20:37:43.465Z,102.20
2022-12-12T20:40:13.104Z,76.18
2022-12-12T20:42:41.654Z,107.30
2022-12-12T20:45:10.174Z,37.60
2022-12-12T20:47:38.080Z,45.88
2022-12-12T20:50:06.894Z,40.22
2022-12-12T20:52:34.803Z,29.80
2022-12-12T20:55:03.337Z,17.67
2022-12-12T20:57:31.865Z,14.68
2022-12-12T21:00:00.545Z,13.68
2022-12-12T21:02:30.395Z,31.95
2022-12-12T21:05:00.473Z,20.05
2022-12-12T21:07:28.391Z,21.00
2022-12-12T21:09:57.202Z,21.58
2022-12-12T21:12:25.450Z,18.33
2022-12-12T21:14:57.176Z,20.20
2022-12-12T21:17:29.289Z,27.50
2022-12-12T21:20:01.757Z,19.02
2022-12-12T21:22:34.881Z,20.20
2022-12-12T21:25:04.002Z,15.57
2022-12-12T21:27:33.491Z,17.05
2022-12-12T21:30:04.870Z,14.33
2022-12-12T21:35:01.638Z,18.20
2022-12-12T21:37:30.042Z,18.38
2022-12-12T21:39:58.251Z,27.13
2022-12-12T21:42:26.117Z,14.90
2022-12-12T21:44:54.374Z,14.85
2022-12-12T21:47:22.299Z,23.00
2022-12-12T21:49:50.641Z,17.70
2022-12-12T21:52:18.831Z,15.00
2022-12-12T21:54:47.046Z,17.20
2022-12-12T21:57:19.585Z,14.70
2022-12-12T21:59:51.728Z,13.15
2022-12-12T22:02:20.198Z,18.15
2022-12-12T22:04:48.720Z,16.25
2022-12-12T22:07:18.314Z,15.85
2022-12-12T22:09:56.954Z,17.37
2022-12-12T22:12:37.191Z,17.38
2022-12-12T22:15:05.899Z,22.10
2022-12-12T22:17:33.815Z,15.52
2022-12-12T22:20:02.150Z,14.20
2022-12-12T22:22:30.079Z,12.70
2022-12-12T22:24:59.199Z,11.65
2022-12-12T22:27:27.757Z,11.63
2022-12-12T22:29:56.523Z,12.30
2022-12-12T22:32:24.811Z,11.43
2022-12-12T22:34:53.889Z,12.55
2022-12-12T22:37:22.214Z,14.02
2022-12-12T22:39:50.458Z,12.90
2022-12-12T22:42:19.585Z,12.95
2022-12-12T22:44:49.074Z,14.70
2022-12-12T22:47:17.764Z,24.17
2022-12-12T22:49:46.844Z,13.65
2022-12-12T22:52:15.117Z,10.02
2022-12-12T22:54:44.152Z,13.20
2022-12-12T22:57:12.447Z,12.82
2022-12-12T22:59:42.690Z,11.20
2022-12-12T23:02:25.153Z,13.33
2022-12-12T23:04:55.363Z,12.30
2022-12-12T23:07:23.574Z,11.75
2022-12-12T23:09:54.538Z,11.73
2022-12-12T23:12:23.507Z,9.65
2022-12-12T23:14:52.467Z,12.60
2022-12-12T23:17:21.617Z,11.98
2022-12-12T23:19:50.021Z,10.65
2022-12-12T23:22:18.669Z,11.23
2022-12-12T23:24:49.366Z,17.67
2022-12-12T23:27:18.228Z,12.85
2022-12-12T23:29:47.094Z,12.77
2022-12-12T23:32:15.489Z,11.65
2022-12-12T23:34:45.723Z,11.77
2022-12-12T23:37:13.538Z,11.68
2022-12-12T23:39:41.820Z,10.95
2022-12-12T23:42:09.712Z,12.00
2022-12-12T23:44:38.610Z,20.30
2022-12-12T23:47:06.671Z,14.93
2022-12-12T23:49:34.906Z,11.02
2022-12-12T23:52:02.911Z,9.55
2022-12-12T23:54:46.494Z,8.55
2022-12-12T23:57:14.342Z,8.43
2022-12-12T23:59:42.688Z,7.25
